Lavina, MT

2:15 AM MDT on October 22, 2014 (GMT -0600)
RAWS HORSE THIEF MT US | Change Station
CLOSE
Current Station
Personal Weather Station
Location: Roundup, MT
Elevation: 3479 ft
Nearby Weather Stations

Elev 3479 ft 46.43 °N, 108.67 °W | Updated 36 minutes ago

Partly Cloudy
Partly Cloudy
46 °F
Feels Like 41 °F
N
9
Wind Variable Wind from West
Gusts 21.0 mph

Today
High -- | Low -- °F
--% Chance of Precip.
Yesterday
High -- | Low -- °F
Precip. -- in
7:43 AM 6:17 PM
Waning Crescent, 3% visible
Pressure 29.90 in
Visibility 10.0 miles
Clouds Clear
Windchill 41 °F
Dew Point 32 °F
Humidity 59%
Rainfall 0.00 in
Snow Depth Not available.
UV 0 out of 12
Pollen 2.80 out of 12
Air Quality Not available.
Flu Activity No Activity
METAR KBIL 220753Z 29019KT 10SM CLR 09/M01 A2994 RMK AO2 SLP124 T00891011

More Conditions Fewer Conditions

Pressure 29.90 in
Visibility 10.0 miles
Clouds Clear
Windchill 41 °F
Dew Point 32 °F
Humidity 59%
Rainfall 0.00 in
Snow Depth Not available.
UV 0 out of 12
Pollen 2.80 out of 12
Air Quality Not available.
Flu Activity No Activity
METAR KBIL 220753Z 29019KT 10SM CLR 09/M01 A2994 RMK AO2 SLP124 T00891011

More Conditions Fewer Conditions

10-Day Weather Forecast

Almanac

Astronomy

Oct. 22, 2014 Rise Set
Actual Time 7:43 AM MDT 6:17 PM MDT
Civil Twilight 7:12 AM MDT 6:47 PM MDT
Nautical Twilight 6:37 AM MDT 7:22 PM MDT
Astronomical Twilight 6:02 AM MDT 7:57 PM MDT
Moon 6:23 AM MDT 5:48 PM MDT
Length of Visible Light 11h 35m
Length of Day
10h 33m
Tomorrow will be 3m 7s shorter.
Waning Crescent, 3% of the Moon is Illuminated
Today
Waning Crescent
Oct 23
New
Oct 30
First Quarter
Nov 6
Full
Nov 14
Last Quarter

Today's Extremes

State Highs State Lows

Community

WunderPhotos

Upload Photos

1,763,889 photos uploaded!

Nearby

Snow Depth

Station Depth Elevation
Crystal Lake 1 in 6050 ft
Daisy Peak 0 in 7600 ft
South Fork Shields 0 in 8100 ft
Spur Park 1 in 8100 ft
Deadman Creek 0 in 6450 ft

Earthquake Activity

City Distance Mag. Time & Date
No recent earthquake activity has been reported nearby.
Minimum magnitude displayed is 2.5.

Coastal Water Temperatures

Place Temperature
No Stations Reporting

Nearby Weather Stations